sensor_id;sensor_type;location;lat;lon;timestamp;pressure;altitude;pressure_sealevel;temperature;humidity
17209;BME280;8720;48.488;9.202;2022-10-16T00:01:22;96901.22;;;21.31;60.31
17209;BME280;8720;48.488;9.202;2022-10-16T00:03:50;96901.22;;;21.31;60.15
17209;BME280;8720;48.488;9.202;2022-10-16T00:06:20;96904.00;;;21.29;60.17
17209;BME280;8720;48.488;9.202;2022-10-16T00:08:49;96895.19;;;21.29;59.90
17209;BME280;8720;48.488;9.202;2022-10-16T00:11:19;96902.44;;;21.27;59.97
17209;BME280;8720;48.488;9.202;2022-10-16T00:13:49;96893.13;;;21.20;60.29
17209;BME280;8720;48.488;9.202;2022-10-16T00:16:19;96892.72;;;21.13;60.07
17209;BME280;8720;48.488;9.202;2022-10-16T00:18:47;96883.44;;;21.06;60.09
17209;BME280;8720;48.488;9.202;2022-10-16T00:21:18;96905.16;;;21.13;59.92
17209;BME280;8720;48.488;9.202;2022-10-16T00:23:46;96904.59;;;21.08;60.29
17209;BME280;8720;48.488;9.202;2022-10-16T00:26:17;96903.97;;;21.04;60.16
17209;BME280;8720;48.488;9.202;2022-10-16T00:28:47;96907.75;;;21.00;60.31
17209;BME280;8720;48.488;9.202;2022-10-16T00:31:16;96918.59;;;20.97;60.35
17209;BME280;8720;48.488;9.202;2022-10-16T00:33:44;96918.81;;;20.94;60.38
17209;BME280;8720;48.488;9.202;2022-10-16T00:36:15;96917.31;;;20.90;60.14
17209;BME280;8720;48.488;9.202;2022-10-16T00:38:43;96916.66;;;20.87;60.27
17209;BME280;8720;48.488;9.202;2022-10-16T00:41:14;96911.53;;;20.83;60.29
17209;BME280;8720;48.488;9.202;2022-10-16T00:43:44;96908.13;;;20.81;60.37
17209;BME280;8720;48.488;9.202;2022-10-16T00:46:21;96913.66;;;20.78;60.74
17209;BME280;8720;48.488;9.202;2022-10-16T00:48:54;96910.25;;;20.76;61.04
17209;BME280;8720;48.488;9.202;2022-10-16T00:51:28;96911.19;;;20.75;60.95
17209;BME280;8720;48.488;9.202;2022-10-16T00:53:57;96910.34;;;20.75;61.12
17209;BME280;8720;48.488;9.202;2022-10-16T00:56:26;96907.66;;;20.75;60.95
17209;BME280;8720;48.488;9.202;2022-10-16T00:58:53;96911.19;;;20.75;61.22
17209;BME280;8720;48.488;9.202;2022-10-16T01:01:25;96904.06;;;20.76;60.81
17209;BME280;8720;48.488;9.202;2022-10-16T01:03:52;96910.16;;;20.78;60.66
17209;BME280;8720;48.488;9.202;2022-10-16T01:06:24;96914.50;;;20.79;60.33
17209;BME280;8720;48.488;9.202;2022-10-16T01:09:06;96908.34;;;20.78;60.69
17209;BME280;8720;48.488;9.202;2022-10-16T01:11:47;96918.97;;;20.78;61.11
17209;BME280;8720;48.488;9.202;2022-10-16T01:14:23;96925.06;;;20.80;61.01
17209;BME280;8720;48.488;9.202;2022-10-16T01:17:01;96907.66;;;20.75;61.04
17209;BME280;8720;48.488;9.202;2022-10-16T01:20:00;96922.28;;;20.82;61.20
17209;BME280;8720;48.488;9.202;2022-10-16T01:22:39;96921.22;;;20.84;60.60
17209;BME280;8720;48.488;9.202;2022-10-16T01:25:18;96929.94;;;20.87;60.61
17209;BME280;8720;48.488;9.202;2022-10-16T01:27:51;96924.53;;;20.88;60.80
17209;BME280;8720;48.488;9.202;2022-10-16T01:30:24;96926.34;;;20.88;60.36
17209;BME280;8720;48.488;9.202;2022-10-16T01:32:59;96916.56;;;20.88;60.79
17209;BME280;8720;48.488;9.202;2022-10-16T01:35:30;96913.97;;;20.87;60.79
17209;BME280;8720;48.488;9.202;2022-10-16T01:38:05;96912.41;;;20.84;60.53
17209;BME280;8720;48.488;9.202;2022-10-16T01:40:37;96917.91;;;20.81;60.41
17209;BME280;8720;48.488;9.202;2022-10-16T01:43:12;96924.31;;;20.78;60.46
17209;BME280;8720;48.488;9.202;2022-10-16T01:45:44;96921.72;;;20.77;60.38
17209;BME280;8720;48.488;9.202;2022-10-16T01:48:14;96920.03;;;20.76;61.01
17209;BME280;8720;48.488;9.202;2022-10-16T01:50:52;96921.41;;;20.69;60.75
17209;BME280;8720;48.488;9.202;2022-10-16T01:53:23;96914.91;;;20.73;60.93
17209;BME280;8720;48.488;9.202;2022-10-16T01:55:54;96915.88;;;20.72;60.61
17209;BME280;8720;48.488;9.202;2022-10-16T01:58:25;96916.72;;;20.72;60.96
17209;BME280;8720;48.488;9.202;2022-10-16T02:06:03;96917.56;;;20.73;60.65
17209;BME280;8720;48.488;9.202;2022-10-16T02:08:31;96920.97;;;20.75;60.93
17209;BME280;8720;48.488;9.202;2022-10-16T02:11:00;96909.41;;;20.76;60.95
17209;BME280;8720;48.488;9.202;2022-10-16T02:13:35;96921.72;;;20.77;60.94
17209;BME280;8720;48.488;9.202;2022-10-16T02:16:05;96917.25;;;20.77;61.02
17209;BME280;8720;48.488;9.202;2022-10-16T02:18:33;96915.56;;;20.76;60.91
17209;BME280;8720;48.488;9.202;2022-10-16T02:21:07;96907.59;;;20.76;61.11
17209;BME280;8720;48.488;9.202;2022-10-16T02:23:49;96906.63;;;20.77;61.03
17209;BME280;8720;48.488;9.202;2022-10-16T02:26:27;96904.81;;;20.78;60.61
17209;BME280;8720;48.488;9.202;2022-10-16T02:29:02;96903.84;;;20.79;60.76
17209;BME280;8720;48.488;9.202;2022-10-16T02:31:35;96909.50;;;20.74;60.85
17209;BME280;8720;48.488;9.202;2022-10-16T02:34:06;96914.41;;;20.80;60.72
17209;BME280;8720;48.488;9.202;2022-10-16T02:36:37;96924.09;;;20.81;61.02
17209;BME280;8720;48.488;9.202;2022-10-16T02:39:06;96918.78;;;20.81;60.93
17209;BME280;8720;48.488;9.202;2022-10-16T02:41:34;96924.84;;;20.83;60.91
17209;BME280;8720;48.488;9.202;2022-10-16T02:44:03;96916.00;;;20.83;60.70
17209;BME280;8720;48.488;9.202;2022-10-16T02:46:30;96917.84;;;20.83;61.16
17209;BME280;8720;48.488;9.202;2022-10-16T02:48:58;96922.47;;;20.79;61.08
17209;BME280;8720;48.488;9.202;2022-10-16T02:51:25;96913.75;;;20.77;61.28
17209;BME280;8720;48.488;9.202;2022-10-16T02:53:52;96918.31;;;20.75;60.92
17209;BME280;8720;48.488;9.202;2022-10-16T02:56:19;96917.56;;;20.73;60.88
17209;BME280;8720;48.488;9.202;2022-10-16T02:58:46;96928.41;;;20.70;60.78
17209;BME280;8720;48.488;9.202;2022-10-16T03:01:15;96918.81;;;20.67;61.25
17209;BME280;8720;48.488;9.202;2022-10-16T03:03:43;96918.16;;;20.64;61.45
17209;BME280;8720;48.488;9.202;2022-10-16T03:06:10;96912.97;;;20.62;61.43
17209;BME280;8720;48.488;9.202;2022-10-16T03:08:37;96917.53;;;20.60;61.34
17209;BME280;8720;48.488;9.202;2022-10-16T03:11:04;96908.03;;;20.56;61.48
17209;BME280;8720;48.488;9.202;2022-10-16T03:13:32;96907.28;;;20.54;61.25
17209;BME280;8720;48.488;9.202;2022-10-16T03:15:59;96911.19;;;20.49;61.52
17209;BME280;8720;48.488;9.202;2022-10-16T03:18:27;96917.88;;;20.42;61.89
17209;BME280;8720;48.488;9.202;2022-10-16T03:20:54;96929.72;;;20.36;61.61
17209;BME280;8720;48.488;9.202;2022-10-16T03:23:21;96925.59;;;20.32;61.50
17209;BME280;8720;48.488;9.202;2022-10-16T03:25:49;96924.72;;;20.32;61.86
17209;BME280;8720;48.488;9.202;2022-10-16T03:28:16;96931.94;;;20.30;61.96
17209;BME280;8720;48.488;9.202;2022-10-16T03:30:43;96930.22;;;20.29;61.83
17209;BME280;8720;48.488;9.202;2022-10-16T03:33:10;96932.97;;;20.27;61.84
17209;BME280;8720;48.488;9.202;2022-10-16T03:35:39;96941.91;;;20.26;61.72
17209;BME280;8720;48.488;9.202;2022-10-16T03:38:06;96934.97;;;20.24;61.59
17209;BME280;8720;48.488;9.202;2022-10-16T03:40:33;96933.28;;;20.23;61.88
17209;BME280;8720;48.488;9.202;2022-10-16T03:43:00;96935.19;;;20.21;61.85
17209;BME280;8720;48.488;9.202;2022-10-16T03:45:28;96924.72;;;20.18;61.89
17209;BME280;8720;48.488;9.202;2022-10-16T03:47:55;96933.72;;;20.15;61.69
17209;BME280;8720;48.488;9.202;2022-10-16T03:50:22;96928.59;;;20.12;62.05
17209;BME280;8720;48.488;9.202;2022-10-16T03:52:50;96931.38;;;20.11;61.91
17209;BME280;8720;48.488;9.202;2022-10-16T03:55:17;96930.50;;;20.10;62.24
17209;BME280;8720;48.488;9.202;2022-10-16T03:57:45;96928.06;;;20.07;61.67
17209;BME280;8720;48.488;9.202;2022-10-16T04:00:13;96934.19;;;20.08;62.07
17209;BME280;8720;48.488;9.202;2022-10-16T04:02:40;96938.75;;;20.06;61.93
17209;BME280;8720;48.488;9.202;2022-10-16T04:05:08;96939.72;;;20.05;62.37
17209;BME280;8720;48.488;9.202;2022-10-16T04:07:35;96937.06;;;20.05;61.83
17209;BME280;8720;48.488;9.202;2022-10-16T04:10:06;96928.81;;;19.95;62.31
17209;BME280;8720;48.488;9.202;2022-10-16T04:12:33;96942.47;;;20.03;62.26
17209;BME280;8720;48.488;9.202;2022-10-16T04:15:00;96938.09;;;20.02;62.11
17209;BME280;8720;48.488;9.202;2022-10-16T04:17:27;96944.28;;;20.03;62.22
17209;BME280;8720;48.488;9.202;2022-10-16T04:19:54;96948.72;;;20.02;62.33
17209;BME280;8720;48.488;9.202;2022-10-16T04:22:22;96947.84;;;20.02;62.15
17209;BME280;8720;48.488;9.202;2022-10-16T04:24:49;96948.81;;;20.01;62.64
17209;BME280;8720;48.488;9.202;2022-10-16T04:27:18;96946.28;;;19.99;62.04
17209;BME280;8720;48.488;9.202;2022-10-16T04:29:45;96943.72;;;19.98;62.35
17209;BME280;8720;48.488;9.202;2022-10-16T04:32:12;96935.91;;;19.94;62.39
17209;BME280;8720;48.488;9.202;2022-10-16T04:34:39;96933.38;;;19.93;62.18
17209;BME280;8720;48.488;9.202;2022-10-16T04:37:07;96927.19;;;19.92;62.46
17209;BME280;8720;48.488;9.202;2022-10-16T04:39:34;96939.59;;;19.92;62.18
17209;BME280;8720;48.488;9.202;2022-10-16T04:42:01;96937.06;;;19.90;62.36
17209;BME280;8720;48.488;9.202;2022-10-16T04:44:30;96941.44;;;19.91;62.14
17209;BME280;8720;48.488;9.202;2022-10-16T04:46:57;96939.72;;;19.90;62.59
17209;BME280;8720;48.488;9.202;2022-10-16T04:49:24;96939.72;;;19.90;62.67
17209;BME280;8720;48.488;9.202;2022-10-16T04:51:51;96945.03;;;19.90;62.51
17209;BME280;8720;48.488;9.202;2022-10-16T04:54:18;96943.34;;;19.89;62.36
17209;BME280;8720;48.488;9.202;2022-10-16T04:56:46;96941.59;;;19.88;62.88
17209;BME280;8720;48.488;9.202;2022-10-16T04:59:14;96947.13;;;19.85;62.61
17209;BME280;8720;48.488;9.202;2022-10-16T05:01:43;96959.25;;;19.89;62.56
17209;BME280;8720;48.488;9.202;2022-10-16T05:04:10;96961.91;;;19.89;62.84
17209;BME280;8720;48.488;9.202;2022-10-16T05:06:38;96941.44;;;19.77;62.45
17209;BME280;8720;48.488;9.202;2022-10-16T05:09:05;96958.41;;;19.89;63.02
17209;BME280;8720;48.488;9.202;2022-10-16T05:11:33;96968.16;;;19.88;62.75
17209;BME280;8720;48.488;9.202;2022-10-16T05:14:01;96972.66;;;19.88;62.51
17209;BME280;8720;48.488;9.202;2022-10-16T05:16:29;96971.78;;;19.87;62.33
17209;BME280;8720;48.488;9.202;2022-10-16T05:18:58;96971.13;;;19.84;62.64
17209;BME280;8720;48.488;9.202;2022-10-16T05:21:25;96964.94;;;19.83;62.92
17209;BME280;8720;48.488;9.202;2022-10-16T05:23:53;96965.88;;;19.82;62.55
17209;BME280;8720;48.488;9.202;2022-10-16T05:26:21;96968.63;;;19.81;62.76
17209;BME280;8720;48.488;9.202;2022-10-16T05:28:49;96971.59;;;19.76;62.81
17209;BME280;8720;48.488;9.202;2022-10-16T05:31:17;96977.06;;;19.73;63.04
17209;BME280;8720;48.488;9.202;2022-10-16T05:33:44;96967.59;;;19.69;63.02
17209;BME280;8720;48.488;9.202;2022-10-16T05:36:12;96980.09;;;19.67;62.95
17209;BME280;8720;48.488;9.202;2022-10-16T05:38:40;96981.16;;;19.65;62.96
17209;BME280;8720;48.488;9.202;2022-10-16T05:41:07;96979.53;;;19.62;62.89
17209;BME280;8720;48.488;9.202;2022-10-16T05:43:34;96984.06;;;19.60;62.94
17209;BME280;8720;48.488;9.202;2022-10-16T05:46:04;96973.63;;;19.57;62.70
17209;BME280;8720;48.488;9.202;2022-10-16T05:48:33;96982.56;;;19.70;62.47
17209;BME280;8720;48.488;9.202;2022-10-16T05:51:02;96990.59;;;19.69;62.55
17209;BME280;8720;48.488;9.202;2022-10-16T05:53:34;96996.97;;;19.66;62.60
17209;BME280;8720;48.488;9.202;2022-10-16T05:56:02;96998.00;;;19.64;62.59
17209;BME280;8720;48.488;9.202;2022-10-16T05:58:32;96997.09;;;19.65;62.79
17209;BME280;8720;48.488;9.202;2022-10-16T06:01:02;96998.78;;;19.66;62.77
17209;BME280;8720;48.488;9.202;2022-10-16T06:03:30;96997.75;;;19.68;62.70
17209;BME280;8720;48.488;9.202;2022-10-16T06:05:57;96995.66;;;19.73;62.97
17209;BME280;8720;48.488;9.202;2022-10-16T06:08:25;96999.94;;;19.76;63.25
17209;BME280;8720;48.488;9.202;2022-10-16T06:11:02;97005.91;;;19.79;62.55
17209;BME280;8720;48.488;9.202;2022-10-16T06:13:30;97009.22;;;19.83;62.83
17209;BME280;8720;48.488;9.202;2022-10-16T06:15:59;97013.59;;;19.84;63.23
17209;BME280;8720;48.488;9.202;2022-10-16T06:18:28;97009.50;;;19.92;62.77
17209;BME280;8720;48.488;9.202;2022-10-16T06:20:56;97013.69;;;19.97;62.98
17209;BME280;8720;48.488;9.202;2022-10-16T06:23:24;97023.28;;;19.99;63.11
17209;BME280;8720;48.488;9.202;2022-10-16T06:25:52;97018.75;;;20.01;63.12
17209;BME280;8720;48.488;9.202;2022-10-16T06:28:23;97022.97;;;20.04;62.60
17209;BME280;8720;48.488;9.202;2022-10-16T06:30:59;97030.88;;;20.05;63.05
17209;BME280;8720;48.488;9.202;2022-10-16T06:33:26;97039.38;;;20.40;60.88
17209;BME280;8720;48.488;9.202;2022-10-16T06:35:53;97025.03;;;20.28;61.70
17209;BME280;8720;48.488;9.202;2022-10-16T06:38:33;97036.81;;;20.24;62.30
17209;BME280;8720;48.488;9.202;2022-10-16T06:41:01;97027.09;;;20.23;62.03
17209;BME280;8720;48.488;9.202;2022-10-16T06:43:30;97041.25;;;20.24;62.55
17209;BME280;8720;48.488;9.202;2022-10-16T06:45:59;97040.41;;;20.23;62.50
17209;BME280;8720;48.488;9.202;2022-10-16T06:48:27;97043.34;;;20.33;62.31
17209;BME280;8720;48.488;9.202;2022-10-16T06:50:57;97056.13;;;20.40;62.65
17209;BME280;8720;48.488;9.202;2022-10-16T06:53:26;97060.97;;;20.48;62.58
17209;BME280;8720;48.488;9.202;2022-10-16T06:55:53;97062.03;;;20.59;62.72
17209;BME280;8720;48.488;9.202;2022-10-16T06:58:21;97044.63;;;20.68;62.57
17209;BME280;8720;48.488;9.202;2022-10-16T07:00:55;97051.94;;;20.78;62.54
17209;BME280;8720;48.488;9.202;2022-10-16T07:03:22;97052.38;;;20.85;62.36
17209;BME280;8720;48.488;9.202;2022-10-16T07:05:50;97062.63;;;20.91;62.51
17209;BME280;8720;48.488;9.202;2022-10-16T07:08:19;97066.69;;;20.97;62.46
17209;BME280;8720;48.488;9.202;2022-10-16T07:10:46;97076.13;;;21.02;62.51
17209;BME280;8720;48.488;9.202;2022-10-16T07:13:13;97078.50;;;21.07;62.19
17209;BME280;8720;48.488;9.202;2022-10-16T07:15:42;97087.88;;;21.12;62.41
17209;BME280;8720;48.488;9.202;2022-10-16T07:18:11;97077.81;;;21.17;61.91
17209;BME280;8720;48.488;9.202;2022-10-16T07:20:38;97076.63;;;21.21;62.03
17209;BME280;8720;48.488;9.202;2022-10-16T07:23:05;97086.13;;;21.25;61.71
17209;BME280;8720;48.488;9.202;2022-10-16T07:25:32;97087.53;;;21.31;61.85
17209;BME280;8720;48.488;9.202;2022-10-16T07:28:00;97093.31;;;21.37;62.02
17209;BME280;8720;48.488;9.202;2022-10-16T07:30:27;97101.78;;;21.44;61.99
17209;BME280;8720;48.488;9.202;2022-10-16T07:32:54;97102.19;;;21.50;61.74
17209;BME280;8720;48.488;9.202;2022-10-16T07:35:23;97103.59;;;21.56;62.12
17209;BME280;8720;48.488;9.202;2022-10-16T07:37:50;97102.16;;;21.64;61.82
17209;BME280;8720;48.488;9.202;2022-10-16T07:40:17;97109.44;;;21.75;61.75
17209;BME280;8720;48.488;9.202;2022-10-16T07:42:45;97110.66;;;21.84;61.92
17209;BME280;8720;48.488;9.202;2022-10-16T07:45:12;97113.44;;;21.95;61.79
17209;BME280;8720;48.488;9.202;2022-10-16T07:47:39;97132.25;;;22.06;61.71
17209;BME280;8720;48.488;9.202;2022-10-16T07:50:07;97122.84;;;22.13;61.44
17209;BME280;8720;48.488;9.202;2022-10-16T07:52:36;97127.66;;;22.20;60.93
17209;BME280;8720;48.488;9.202;2022-10-16T07:55:04;97139.09;;;22.35;60.98
17209;BME280;8720;48.488;9.202;2022-10-16T07:57:32;97135.78;;;22.44;61.06
17209;BME280;8720;48.488;9.202;2022-10-16T07:59:59;97130.78;;;22.52;60.85
17209;BME280;8720;48.488;9.202;2022-10-16T08:02:26;97139.66;;;22.65;60.22
17209;BME280;8720;48.488;9.202;2022-10-16T08:04:54;97143.19;;;22.78;60.91
17209;BME280;8720;48.488;9.202;2022-10-16T08:07:21;97147.66;;;22.90;59.84
17209;BME280;8720;48.488;9.202;2022-10-16T08:09:50;97147.00;;;22.99;59.72
17209;BME280;8720;48.488;9.202;2022-10-16T08:12:18;97146.31;;;23.08;59.45
17209;BME280;8720;48.488;9.202;2022-10-16T08:14:45;97137.69;;;23.17;59.38
17209;BME280;8720;48.488;9.202;2022-10-16T08:17:14;97138.06;;;23.24;59.53
17209;BME280;8720;48.488;9.202;2022-10-16T08:19:44;97137.63;;;23.30;59.06
17209;BME280;8720;48.488;9.202;2022-10-16T08:22:12;97135.53;;;23.35;58.88
17209;BME280;8720;48.488;9.202;2022-10-16T08:24:39;97142.34;;;23.39;59.32
17209;BME280;8720;48.488;9.202;2022-10-16T08:27:08;97148.19;;;23.44;59.46
17209;BME280;8720;48.488;9.202;2022-10-16T08:29:36;97161.09;;;23.50;59.02
17209;BME280;8720;48.488;9.202;2022-10-16T08:32:04;97152.84;;;23.53;59.01
17209;BME280;8720;48.488;9.202;2022-10-16T08:34:32;97154.47;;;23.56;58.72
17209;BME280;8720;48.488;9.202;2022-10-16T08:37:00;97162.97;;;23.61;58.89
17209;BME280;8720;48.488;9.202;2022-10-16T08:39:27;97165.94;;;23.69;58.50
17209;BME280;8720;48.488;9.202;2022-10-16T08:42:21;97167.59;;;23.82;59.24
17209;BME280;8720;48.488;9.202;2022-10-16T08:45:34;97169.84;;;23.99;59.23
17209;BME280;8720;48.488;9.202;2022-10-16T08:48:17;97173.97;;;24.16;58.71
17209;BME280;8720;48.488;9.202;2022-10-16T08:50:49;97171.94;;;24.30;58.45
17209;BME280;8720;48.488;9.202;2022-10-16T08:53:24;97185.25;;;24.43;58.51
17209;BME280;8720;48.488;9.202;2022-10-16T08:55:57;97179.06;;;24.54;58.05
17209;BME280;8720;48.488;9.202;2022-10-16T08:58:30;97175.47;;;24.66;58.08
17209;BME280;8720;48.488;9.202;2022-10-16T09:01:00;97182.66;;;24.76;57.40
17209;BME280;8720;48.488;9.202;2022-10-16T09:03:50;97177.56;;;24.84;58.02
17209;BME280;8720;48.488;9.202;2022-10-16T09:06:40;97175.03;;;24.94;57.37
17209;BME280;8720;48.488;9.202;2022-10-16T09:09:43;97185.03;;;25.03;57.41
17209;BME280;8720;48.488;9.202;2022-10-16T09:12:21;97179.53;;;25.15;57.14
17209;BME280;8720;48.488;9.202;2022-10-16T09:15:02;97188.28;;;25.29;56.83
17209;BME280;8720;48.488;9.202;2022-10-16T09:17:46;97187.09;;;25.44;57.46
17209;BME280;8720;48.488;9.202;2022-10-16T09:20:42;97195.00;;;25.56;57.16
17209;BME280;8720;48.488;9.202;2022-10-16T09:23:18;97200.09;;;25.70;56.89
17209;BME280;8720;48.488;9.202;2022-10-16T09:25:48;97195.81;;;25.79;56.26
17209;BME280;8720;48.488;9.202;2022-10-16T09:28:18;97194.34;;;25.86;56.02
17209;BME280;8720;48.488;9.202;2022-10-16T09:30:48;97194.09;;;25.89;55.48
17209;BME280;8720;48.488;9.202;2022-10-16T09:33:18;97189.69;;;25.88;55.11
17209;BME280;8720;48.488;9.202;2022-10-16T09:35:50;97201.84;;;25.92;55.18
17209;BME280;8720;48.488;9.202;2022-10-16T09:38:27;97196.41;;;25.93;55.28
17209;BME280;8720;48.488;9.202;2022-10-16T09:40:56;97198.53;;;25.99;54.93
17209;BME280;8720;48.488;9.202;2022-10-16T09:43:27;97191.84;;;26.05;54.19
17209;BME280;8720;48.488;9.202;2022-10-16T09:46:02;97199.53;;;26.09;54.73
17209;BME280;8720;48.488;9.202;2022-10-16T09:48:36;97204.38;;;26.16;54.17
17209;BME280;8720;48.488;9.202;2022-10-16T09:51:14;97202.78;;;26.24;54.50
17209;BME280;8720;48.488;9.202;2022-10-16T09:53:45;97197.16;;;26.27;54.43
17209;BME280;8720;48.488;9.202;2022-10-16T09:56:22;97207.09;;;26.36;54.41
17209;BME280;8720;48.488;9.202;2022-10-16T09:58:51;97203.91;;;26.42;53.92
17209;BME280;8720;48.488;9.202;2022-10-16T10:01:24;97197.28;;;26.46;54.00
17209;BME280;8720;48.488;9.202;2022-10-16T10:03:57;97207.66;;;26.51;53.61
17209;BME280;8720;48.488;9.202;2022-10-16T10:06:30;97206.56;;;26.53;53.72
17209;BME280;8720;48.488;9.202;2022-10-16T10:09:06;97207.28;;;26.55;53.63
17209;BME280;8720;48.488;9.202;2022-10-16T10:11:53;97202.72;;;26.56;53.74
17209;BME280;8720;48.488;9.202;2022-10-16T10:14:29;97194.53;;;26.57;53.53
17209;BME280;8720;48.488;9.202;2022-10-16T10:17:19;97201.78;;;26.57;53.56
17209;BME280;8720;48.488;9.202;2022-10-16T10:19:51;97196.25;;;26.58;53.07
17209;BME280;8720;48.488;9.202;2022-10-16T10:22:30;97203.44;;;26.58;53.34
17209;BME280;8720;48.488;9.202;2022-10-16T10:25:13;97203.59;;;26.56;53.51
17209;BME280;8720;48.488;9.202;2022-10-16T10:28:16;97204.44;;;26.57;53.81
17209;BME280;8720;48.488;9.202;2022-10-16T10:30:57;97205.03;;;26.60;53.29
17209;BME280;8720;48.488;9.202;2022-10-16T10:33:38;97207.06;;;26.68;53.61
17209;BME280;8720;48.488;9.202;2022-10-16T10:36:25;97201.06;;;26.75;53.06
17209;BME280;8720;48.488;9.202;2022-10-16T10:38:59;97195.91;;;26.83;52.42
17209;BME280;8720;48.488;9.202;2022-10-16T10:42:08;97200.59;;;26.91;53.61
17209;BME280;8720;48.488;9.202;2022-10-16T10:45:01;97192.75;;;26.99;52.32
17209;BME280;8720;48.488;9.202;2022-10-16T10:47:47;97195.16;;;27.02;51.70
17209;BME280;8720;48.488;9.202;2022-10-16T10:50:27;97198.56;;;27.04;51.13
17209;BME280;8720;48.488;9.202;2022-10-16T10:53:05;97192.78;;;27.09;50.76
17209;BME280;8720;48.488;9.202;2022-10-16T10:55:44;97186.69;;;27.07;51.18
17209;BME280;8720;48.488;9.202;2022-10-16T10:58:36;97189.00;;;27.11;51.47
17209;BME280;8720;48.488;9.202;2022-10-16T11:01:11;97181.75;;;27.12;50.65
17209;BME280;8720;48.488;9.202;2022-10-16T11:04:10;97200.56;;;27.12;51.48
17209;BME280;8720;48.488;9.202;2022-10-16T11:06:52;97203.00;;;27.15;50.46
17209;BME280;8720;48.488;9.202;2022-10-16T11:09:28;97192.97;;;27.17;50.46
17209;BME280;8720;48.488;9.202;2022-10-16T11:12:01;97193.69;;;27.19;49.59
17209;BME280;8720;48.488;9.202;2022-10-16T11:14:40;97188.19;;;27.20;49.37
17209;BME280;8720;48.488;9.202;2022-10-16T11:17:14;97196.81;;;27.24;49.24
17209;BME280;8720;48.488;9.202;2022-10-16T11:19:48;97188.63;;;27.25;48.76
17209;BME280;8720;48.488;9.202;2022-10-16T11:22:25;97187.06;;;27.23;48.98
17209;BME280;8720;48.488;9.202;2022-10-16T11:25:05;97183.09;;;27.27;48.57
17209;BME280;8720;48.488;9.202;2022-10-16T11:27:44;97187.50;;;27.28;48.84
17209;BME280;8720;48.488;9.202;2022-10-16T11:30:19;97182.69;;;27.31;48.53
17209;BME280;8720;48.488;9.202;2022-10-16T11:33:03;97185.28;;;27.33;48.75
17209;BME280;8720;48.488;9.202;2022-10-16T11:35:42;97182.47;;;27.34;48.65
17209;BME280;8720;48.488;9.202;2022-10-16T11:38:25;97181.47;;;27.35;48.47
17209;BME280;8720;48.488;9.202;2022-10-16T11:41:00;97184.03;;;27.37;48.62
17209;BME280;8720;48.488;9.202;2022-10-16T11:43:37;97180.38;;;27.38;48.13
17209;BME280;8720;48.488;9.202;2022-10-16T11:46:12;97181.91;;;27.40;48.01
17209;BME280;8720;48.488;9.202;2022-10-16T11:48:48;97176.44;;;27.42;47.83
17209;BME280;8720;48.488;9.202;2022-10-16T11:51:25;97172.75;;;27.43;47.57
17209;BME280;8720;48.488;9.202;2022-10-16T11:54:07;97167.94;;;27.46;48.20
17209;BME280;8720;48.488;9.202;2022-10-16T11:56:40;97178.44;;;27.49;47.70
17209;BME280;8720;48.488;9.202;2022-10-16T11:59:23;97175.31;;;27.54;47.96
17209;BME280;8720;48.488;9.202;2022-10-16T12:02:07;97179.31;;;27.59;47.57
17209;BME280;8720;48.488;9.202;2022-10-16T12:04:49;97173.66;;;27.62;48.22
17209;BME280;8720;48.488;9.202;2022-10-16T12:07:23;97177.63;;;27.68;47.38
17209;BME280;8720;48.488;9.202;2022-10-16T12:09:52;97175.38;;;27.73;46.90
17209;BME280;8720;48.488;9.202;2022-10-16T12:12:26;97171.56;;;27.75;47.49
17209;BME280;8720;48.488;9.202;2022-10-16T12:15:02;97177.38;;;27.80;47.49
17209;BME280;8720;48.488;9.202;2022-10-16T12:17:37;97168.72;;;27.86;47.54
17209;BME280;8720;48.488;9.202;2022-10-16T12:20:27;97170.31;;;27.89;47.51
17209;BME280;8720;48.488;9.202;2022-10-16T12:23:02;97170.63;;;27.96;46.98
17209;BME280;8720;48.488;9.202;2022-10-16T12:25:34;97165.81;;;27.99;46.70
17209;BME280;8720;48.488;9.202;2022-10-16T12:28:06;97169.94;;;28.03;46.80
17209;BME280;8720;48.488;9.202;2022-10-16T12:30:35;97168.66;;;28.07;47.04
17209;BME280;8720;48.488;9.202;2022-10-16T12:33:15;97170.91;;;28.12;46.45
17209;BME280;8720;48.488;9.202;2022-10-16T12:35:48;97171.63;;;28.14;46.71
17209;BME280;8720;48.488;9.202;2022-10-16T12:38:18;97180.28;;;28.17;46.45
17209;BME280;8720;48.488;9.202;2022-10-16T12:40:58;97172.34;;;28.16;47.21
17209;BME280;8720;48.488;9.202;2022-10-16T12:43:37;97171.38;;;28.17;46.45
17209;BME280;8720;48.488;9.202;2022-10-16T12:46:22;97175.03;;;28.16;47.28
17209;BME280;8720;48.488;9.202;2022-10-16T12:48:50;97177.44;;;28.19;46.34
17209;BME280;8720;48.488;9.202;2022-10-16T12:51:35;97170.25;;;28.19;46.87
17209;BME280;8720;48.488;9.202;2022-10-16T12:54:11;97177.00;;;28.23;46.43
17209;BME280;8720;48.488;9.202;2022-10-16T12:57:02;97174.63;;;28.20;47.24
17209;BME280;8720;48.488;9.202;2022-10-16T12:59:43;97171.22;;;28.18;47.22
17209;BME280;8720;48.488;9.202;2022-10-16T13:02:53;97179.28;;;28.18;48.12
17209;BME280;8720;48.488;9.202;2022-10-16T13:05:38;97173.91;;;28.18;46.88
17209;BME280;8720;48.488;9.202;2022-10-16T13:08:39;97178.16;;;28.21;47.33
17209;BME280;8720;48.488;9.202;2022-10-16T13:11:23;97179.44;;;28.26;46.67
17209;BME280;8720;48.488;9.202;2022-10-16T13:14:25;97186.38;;;28.29;47.76
17209;BME280;8720;48.488;9.202;2022-10-16T13:17:09;97189.63;;;28.32;47.18
17209;BME280;8720;48.488;9.202;2022-10-16T13:19:46;97191.06;;;28.36;46.37
17209;BME280;8720;48.488;9.202;2022-10-16T13:22:24;97195.59;;;28.36;46.28
17209;BME280;8720;48.488;9.202;2022-10-16T13:25:15;97194.16;;;28.32;46.62
17209;BME280;8720;48.488;9.202;2022-10-16T13:27:54;97190.75;;;28.30;46.34
17209;BME280;8720;48.488;9.202;2022-10-16T13:30:26;97195.28;;;28.29;46.19
17209;BME280;8720;48.488;9.202;2022-10-16T13:33:01;97189.19;;;28.27;46.63
17209;BME280;8720;48.488;9.202;2022-10-16T13:35:32;97186.50;;;28.27;46.08
17209;BME280;8720;48.488;9.202;2022-10-16T13:38:13;97187.66;;;28.25;46.88
17209;BME280;8720;48.488;9.202;2022-10-16T13:40:53;97196.84;;;28.22;46.38
17209;BME280;8720;48.488;9.202;2022-10-16T13:43:25;97192.44;;;28.21;46.46
17209;BME280;8720;48.488;9.202;2022-10-16T13:45:58;97185.38;;;28.20;46.88